sensor_id;sensor_type;location;lat;lon;timestamp;P1;durP1;ratioP1;P2;durP2;ratioP2
47912;SDS011;33676;51.006;17.180;2022-08-11T00:01:26;7.10;;;6.00;;
47912;SDS011;33676;51.006;17.180;2022-08-11T00:04:02;5.50;;;5.10;;
47912;SDS011;33676;51.006;17.180;2022-08-11T00:06:36;8.50;;;6.60;;
47912;SDS011;33676;51.006;17.180;2022-08-11T00:09:18;10.40;;;4.90;;
47912;SDS011;33676;51.006;17.180;2022-08-11T00:11:52;6.10;;;5.50;;
47912;SDS011;33676;51.006;17.180;2022-08-11T00:14:28;5.30;;;4.80;;
47912;SDS011;33676;51.006;17.180;2022-08-11T00:17:10;7.40;;;5.10;;
47912;SDS011;33676;51.006;17.180;2022-08-11T00:19:44;5.20;;;4.80;;
47912;SDS011;33676;51.006;17.180;2022-08-11T00:22:35;6.00;;;5.40;;
47912;SDS011;33676;51.006;17.180;2022-08-11T00:25:14;6.40;;;5.50;;
47912;SDS011;33676;51.006;17.180;2022-08-11T00:27:46;7.20;;;6.50;;
47912;SDS011;33676;51.006;17.180;2022-08-11T00:30:16;4.90;;;4.40;;
47912;SDS011;33676;51.006;17.180;2022-08-11T00:32:53;5.70;;;5.20;;
47912;SDS011;33676;51.006;17.180;2022-08-11T00:35:25;6.30;;;5.30;;
47912;SDS011;33676;51.006;17.180;2022-08-11T00:38:17;5.20;;;4.60;;
47912;SDS011;33676;51.006;17.180;2022-08-11T00:41:10;5.90;;;5.30;;
47912;SDS011;33676;51.006;17.180;2022-08-11T00:50:21;5.30;;;4.70;;
47912;SDS011;33676;51.006;17.180;2022-08-11T00:53:24;5.40;;;5.00;;
47912;SDS011;33676;51.006;17.180;2022-08-11T00:56:16;5.80;;;5.00;;
47912;SDS011;33676;51.006;17.180;2022-08-11T01:41:22;5.20;;;4.80;;
47912;SDS011;33676;51.006;17.180;2022-08-11T01:47:41;7.60;;;5.60;;
47912;SDS011;33676;51.006;17.180;2022-08-11T01:53:29;6.00;;;5.30;;
47912;SDS011;33676;51.006;17.180;2022-08-11T01:56:32;7.60;;;5.60;;
47912;SDS011;33676;51.006;17.180;2022-08-11T02:11:14;6.70;;;5.80;;
47912;SDS011;33676;51.006;17.180;2022-08-11T02:14:06;6.20;;;5.10;;
47912;SDS011;33676;51.006;17.180;2022-08-11T02:16:58;6.90;;;6.20;;
47912;SDS011;33676;51.006;17.180;2022-08-11T02:23:01;6.90;;;6.40;;
47912;SDS011;33676;51.006;17.180;2022-08-11T02:35:18;7.20;;;5.30;;
47912;SDS011;33676;51.006;17.180;2022-08-11T02:44:23;6.50;;;6.00;;
47912;SDS011;33676;51.006;17.180;2022-08-11T02:54:16;6.80;;;5.90;;
47912;SDS011;33676;51.006;17.180;2022-08-11T02:57:20;6.00;;;5.30;;
47912;SDS011;33676;51.006;17.180;2022-08-11T03:00:05;10.10;;;5.10;;
47912;SDS011;33676;51.006;17.180;2022-08-11T03:08:38;6.10;;;5.60;;
47912;SDS011;33676;51.006;17.180;2022-08-11T03:11:49;5.90;;;5.30;;
47912;SDS011;33676;51.006;17.180;2022-08-11T03:15:00;7.90;;;5.80;;
47912;SDS011;33676;51.006;17.180;2022-08-11T03:27:01;6.80;;;5.10;;
47912;SDS011;33676;51.006;17.180;2022-08-11T03:32:45;7.30;;;6.60;;
47912;SDS011;33676;51.006;17.180;2022-08-11T03:39:07;6.60;;;5.40;;
47912;SDS011;33676;51.006;17.180;2022-08-11T03:45:04;7.50;;;6.70;;
47912;SDS011;33676;51.006;17.180;2022-08-11T03:50:31;10.40;;;7.50;;
47912;SDS011;33676;51.006;17.180;2022-08-11T04:36:23;9.30;;;7.00;;
47912;SDS011;33676;51.006;17.180;2022-08-11T04:49:27;12.40;;;7.70;;
47912;SDS011;33676;51.006;17.180;2022-08-11T04:56:02;7.70;;;6.90;;
47912;SDS011;33676;51.006;17.180;2022-08-11T04:59:33;7.80;;;6.70;;
47912;SDS011;33676;51.006;17.180;2022-08-11T05:05:45;7.40;;;6.60;;
47912;SDS011;33676;51.006;17.180;2022-08-11T05:09:00;7.90;;;6.90;;
47912;SDS011;33676;51.006;17.180;2022-08-11T05:17:05;8.70;;;6.10;;
47912;SDS011;33676;51.006;17.180;2022-08-11T05:19:56;6.40;;;5.80;;
47912;SDS011;33676;51.006;17.180;2022-08-11T05:22:49;6.30;;;5.70;;
47912;SDS011;33676;51.006;17.180;2022-08-11T05:25:38;6.10;;;5.30;;
47912;SDS011;33676;51.006;17.180;2022-08-11T05:28:54;6.20;;;5.60;;
47912;SDS011;33676;51.006;17.180;2022-08-11T05:31:55;8.10;;;4.60;;
47912;SDS011;33676;51.006;17.180;2022-08-11T05:34:49;6.30;;;5.10;;
47912;SDS011;33676;51.006;17.180;2022-08-11T05:37:32;7.40;;;4.00;;
47912;SDS011;33676;51.006;17.180;2022-08-11T05:40:11;6.60;;;4.80;;
47912;SDS011;33676;51.006;17.180;2022-08-11T05:43:03;4.10;;;3.60;;
47912;SDS011;33676;51.006;17.180;2022-08-11T05:46:03;5.20;;;4.60;;
47912;SDS011;33676;51.006;17.180;2022-08-11T05:48:52;8.30;;;4.40;;
47912;SDS011;33676;51.006;17.180;2022-08-11T05:51:42;5.20;;;4.20;;
47912;SDS011;33676;51.006;17.180;2022-08-11T05:54:40;4.10;;;3.70;;
47912;SDS011;33676;51.006;17.180;2022-08-11T05:57:35;4.40;;;4.00;;
47912;SDS011;33676;51.006;17.180;2022-08-11T06:00:19;5.10;;;3.80;;
47912;SDS011;33676;51.006;17.180;2022-08-11T06:02:53;5.40;;;3.20;;
47912;SDS011;33676;51.006;17.180;2022-08-11T06:05:34;4.60;;;4.20;;
47912;SDS011;33676;51.006;17.180;2022-08-11T06:08:12;4.50;;;3.90;;
47912;SDS011;33676;51.006;17.180;2022-08-11T06:10:43;4.10;;;3.80;;
47912;SDS011;33676;51.006;17.180;2022-08-11T06:13:14;3.80;;;3.50;;
47912;SDS011;33676;51.006;17.180;2022-08-11T06:15:49;3.90;;;3.60;;
47912;SDS011;33676;51.006;17.180;2022-08-11T06:18:20;4.00;;;3.70;;
47912;SDS011;33676;51.006;17.180;2022-08-11T06:20:51;3.90;;;3.10;;
47912;SDS011;33676;51.006;17.180;2022-08-11T06:23:30;4.50;;;4.00;;
47912;SDS011;33676;51.006;17.180;2022-08-11T06:26:10;5.80;;;4.20;;
47912;SDS011;33676;51.006;17.180;2022-08-11T06:28:41;6.80;;;3.70;;
47912;SDS011;33676;51.006;17.180;2022-08-11T06:31:19;5.80;;;3.00;;
47912;SDS011;33676;51.006;17.180;2022-08-11T06:36:59;4.10;;;3.30;;
47912;SDS011;33676;51.006;17.180;2022-08-11T06:39:38;3.50;;;3.30;;
47912;SDS011;33676;51.006;17.180;2022-08-11T06:45:31;3.30;;;3.10;;
47912;SDS011;33676;51.006;17.180;2022-08-11T06:48:15;3.40;;;3.10;;
47912;SDS011;33676;51.006;17.180;2022-08-11T06:50:51;3.40;;;3.10;;
47912;SDS011;33676;51.006;17.180;2022-08-11T06:56:35;3.40;;;3.20;;
47912;SDS011;33676;51.006;17.180;2022-08-11T06:59:46;3.30;;;2.80;;
47912;SDS011;33676;51.006;17.180;2022-08-11T07:03:07;3.50;;;3.20;;
47912;SDS011;33676;51.006;17.180;2022-08-11T07:05:43;3.60;;;3.30;;
47912;SDS011;33676;51.006;17.180;2022-08-11T07:14:53;3.20;;;2.80;;
47912;SDS011;33676;51.006;17.180;2022-08-11T07:17:50;3.20;;;2.70;;
47912;SDS011;33676;51.006;17.180;2022-08-11T07:20:39;5.60;;;3.30;;
47912;SDS011;33676;51.006;17.180;2022-08-11T07:23:31;4.10;;;3.60;;
47912;SDS011;33676;51.006;17.180;2022-08-11T07:26:23;4.40;;;3.50;;
47912;SDS011;33676;51.006;17.180;2022-08-11T07:29:12;3.70;;;2.90;;
47912;SDS011;33676;51.006;17.180;2022-08-11T07:31:47;3.30;;;2.90;;
47912;SDS011;33676;51.006;17.180;2022-08-11T07:34:35;3.80;;;2.60;;
47912;SDS011;33676;51.006;17.180;2022-08-11T07:37:12;3.00;;;2.80;;
47912;SDS011;33676;51.006;17.180;2022-08-11T07:39:46;2.90;;;2.70;;
47912;SDS011;33676;51.006;17.180;2022-08-11T07:42:28;3.10;;;2.90;;
47912;SDS011;33676;51.006;17.180;2022-08-11T07:45:06;2.30;;;2.10;;
47912;SDS011;33676;51.006;17.180;2022-08-11T07:47:55;3.20;;;2.60;;
47912;SDS011;33676;51.006;17.180;2022-08-11T07:50:42;3.00;;;2.70;;
47912;SDS011;33676;51.006;17.180;2022-08-11T07:53:30;3.40;;;2.30;;
47912;SDS011;33676;51.006;17.180;2022-08-11T07:56:21;2.60;;;2.40;;
47912;SDS011;33676;51.006;17.180;2022-08-11T07:59:10;3.70;;;2.20;;
47912;SDS011;33676;51.006;17.180;2022-08-11T08:02:19;2.30;;;1.90;;
47912;SDS011;33676;51.006;17.180;2022-08-11T08:05:07;2.20;;;2.10;;
47912;SDS011;33676;51.006;17.180;2022-08-11T08:07:55;2.40;;;2.30;;
47912;SDS011;33676;51.006;17.180;2022-08-11T08:10:44;2.20;;;2.00;;
47912;SDS011;33676;51.006;17.180;2022-08-11T08:13:32;3.30;;;2.30;;
47912;SDS011;33676;51.006;17.180;2022-08-11T08:16:21;5.20;;;2.70;;
47912;SDS011;33676;51.006;17.180;2022-08-11T08:19:14;9.10;;;2.70;;
47912;SDS011;33676;51.006;17.180;2022-08-11T08:21:44;3.50;;;2.20;;
47912;SDS011;33676;51.006;17.180;2022-08-11T08:24:14;2.00;;;1.90;;
47912;SDS011;33676;51.006;17.180;2022-08-11T08:26:43;2.50;;;2.30;;
47912;SDS011;33676;51.006;17.180;2022-08-11T08:29:32;2.00;;;1.90;;
47912;SDS011;33676;51.006;17.180;2022-08-11T08:32:20;2.90;;;1.90;;
47912;SDS011;33676;51.006;17.180;2022-08-11T08:34:51;4.30;;;2.60;;
47912;SDS011;33676;51.006;17.180;2022-08-11T08:37:24;3.80;;;2.20;;
47912;SDS011;33676;51.006;17.180;2022-08-11T08:40:14;1.80;;;1.70;;
47912;SDS011;33676;51.006;17.180;2022-08-11T08:42:52;3.60;;;1.80;;
47912;SDS011;33676;51.006;17.180;2022-08-11T08:45:26;2.70;;;2.30;;
47912;SDS011;33676;51.006;17.180;2022-08-11T08:48:00;2.30;;;2.10;;
47912;SDS011;33676;51.006;17.180;2022-08-11T08:50:34;2.50;;;1.70;;
47912;SDS011;33676;51.006;17.180;2022-08-11T08:53:26;1.90;;;1.70;;
47912;SDS011;33676;51.006;17.180;2022-08-11T08:56:00;1.80;;;1.70;;
47912;SDS011;33676;51.006;17.180;2022-08-11T08:58:30;1.90;;;1.90;;
47912;SDS011;33676;51.006;17.180;2022-08-11T09:01:02;1.80;;;1.70;;
47912;SDS011;33676;51.006;17.180;2022-08-11T09:03:35;10.80;;;1.90;;
47912;SDS011;33676;51.006;17.180;2022-08-11T09:06:25;2.50;;;1.80;;
47912;SDS011;33676;51.006;17.180;2022-08-11T09:08:58;1.60;;;1.60;;
47912;SDS011;33676;51.006;17.180;2022-08-11T09:11:28;5.60;;;1.90;;
47912;SDS011;33676;51.006;17.180;2022-08-11T09:14:32;2.10;;;1.70;;
47912;SDS011;33676;51.006;17.180;2022-08-11T09:17:21;6.40;;;1.60;;
47912;SDS011;33676;51.006;17.180;2022-08-11T09:19:59;1.60;;;1.50;;
47912;SDS011;33676;51.006;17.180;2022-08-11T09:22:38;2.30;;;1.70;;
47912;SDS011;33676;51.006;17.180;2022-08-11T09:25:54;5.00;;;2.30;;
47912;SDS011;33676;51.006;17.180;2022-08-11T09:28:46;2.80;;;2.00;;
47912;SDS011;33676;51.006;17.180;2022-08-11T09:31:18;1.40;;;1.30;;
47912;SDS011;33676;51.006;17.180;2022-08-11T09:33:51;1.50;;;1.40;;
47912;SDS011;33676;51.006;17.180;2022-08-11T09:36:22;1.30;;;1.30;;
47912;SDS011;33676;51.006;17.180;2022-08-11T09:39:11;5.40;;;2.20;;
47912;SDS011;33676;51.006;17.180;2022-08-11T09:42:00;1.00;;;1.00;;
47912;SDS011;33676;51.006;17.180;2022-08-11T09:44:33;1.20;;;1.10;;
47912;SDS011;33676;51.006;17.180;2022-08-11T09:47:23;3.30;;;1.40;;
47912;SDS011;33676;51.006;17.180;2022-08-11T09:50:02;1.70;;;1.60;;
47912;SDS011;33676;51.006;17.180;2022-08-11T09:52:35;4.50;;;1.60;;
47912;SDS011;33676;51.006;17.180;2022-08-11T09:55:24;1.50;;;1.40;;
47912;SDS011;33676;51.006;17.180;2022-08-11T09:57:56;8.00;;;2.50;;
47912;SDS011;33676;51.006;17.180;2022-08-11T10:01:00;1.50;;;1.40;;
47912;SDS011;33676;51.006;17.180;2022-08-11T10:03:30;1.90;;;1.50;;
47912;SDS011;33676;51.006;17.180;2022-08-11T10:06:07;8.30;;;1.50;;
47912;SDS011;33676;51.006;17.180;2022-08-11T10:09:02;3.10;;;1.30;;
47912;SDS011;33676;51.006;17.180;2022-08-11T10:11:34;0.80;;;0.80;;
47912;SDS011;33676;51.006;17.180;2022-08-11T10:14:05;2.10;;;1.20;;
47912;SDS011;33676;51.006;17.180;2022-08-11T10:17:03;2.60;;;1.30;;
47912;SDS011;33676;51.006;17.180;2022-08-11T10:19:35;1.90;;;1.20;;
47912;SDS011;33676;51.006;17.180;2022-08-11T10:22:05;3.20;;;1.10;;
47912;SDS011;33676;51.006;17.180;2022-08-11T10:24:55;2.10;;;1.10;;
47912;SDS011;33676;51.006;17.180;2022-08-11T10:27:47;2.10;;;0.90;;
47912;SDS011;33676;51.006;17.180;2022-08-11T10:30:45;1.60;;;1.60;;
47912;SDS011;33676;51.006;17.180;2022-08-11T10:33:40;2.20;;;2.10;;
47912;SDS011;33676;51.006;17.180;2022-08-11T10:39:17;1.80;;;1.50;;
47912;SDS011;33676;51.006;17.180;2022-08-11T10:41:49;1.90;;;1.20;;
47912;SDS011;33676;51.006;17.180;2022-08-11T10:44:54;3.30;;;2.20;;
47912;SDS011;33676;51.006;17.180;2022-08-11T10:47:25;1.30;;;1.20;;
47912;SDS011;33676;51.006;17.180;2022-08-11T10:50:16;2.60;;;1.40;;
47912;SDS011;33676;51.006;17.180;2022-08-11T10:53:10;9.10;;;1.80;;
47912;SDS011;33676;51.006;17.180;2022-08-11T10:56:01;1.60;;;1.50;;
47912;SDS011;33676;51.006;17.180;2022-08-11T10:58:51;2.10;;;2.00;;
47912;SDS011;33676;51.006;17.180;2022-08-11T11:01:31;2.30;;;2.20;;
47912;SDS011;33676;51.006;17.180;2022-08-11T11:04:08;3.20;;;2.00;;
47912;SDS011;33676;51.006;17.180;2022-08-11T11:09:53;1.20;;;1.20;;
47912;SDS011;33676;51.006;17.180;2022-08-11T11:12:42;1.40;;;1.30;;
47912;SDS011;33676;51.006;17.180;2022-08-11T11:15:33;2.20;;;1.10;;
47912;SDS011;33676;51.006;17.180;2022-08-11T11:18:26;2.80;;;1.20;;
47912;SDS011;33676;51.006;17.180;2022-08-11T11:21:13;3.70;;;1.30;;
47912;SDS011;33676;51.006;17.180;2022-08-11T11:23:50;1.60;;;1.50;;
47912;SDS011;33676;51.006;17.180;2022-08-11T11:26:59;1.20;;;1.20;;
47912;SDS011;33676;51.006;17.180;2022-08-11T11:30:04;1.40;;;1.30;;
47912;SDS011;33676;51.006;17.180;2022-08-11T11:37:48;2.20;;;1.20;;
47912;SDS011;33676;51.006;17.180;2022-08-11T11:40:33;2.70;;;1.00;;
47912;SDS011;33676;51.006;17.180;2022-08-11T11:43:04;0.90;;;0.90;;
47912;SDS011;33676;51.006;17.180;2022-08-11T11:45:33;1.40;;;1.40;;
47912;SDS011;33676;51.006;17.180;2022-08-11T11:48:03;1.30;;;1.20;;
47912;SDS011;33676;51.006;17.180;2022-08-11T11:50:34;0.80;;;0.80;;
47912;SDS011;33676;51.006;17.180;2022-08-11T11:53:06;0.90;;;0.80;;
47912;SDS011;33676;51.006;17.180;2022-08-11T11:55:38;1.40;;;1.40;;
47912;SDS011;33676;51.006;17.180;2022-08-11T11:58:08;2.80;;;1.20;;
47912;SDS011;33676;51.006;17.180;2022-08-11T12:00:57;1.40;;;1.30;;
47912;SDS011;33676;51.006;17.180;2022-08-11T12:03:49;1.10;;;1.10;;
47912;SDS011;33676;51.006;17.180;2022-08-11T12:06:22;1.40;;;1.00;;
47912;SDS011;33676;51.006;17.180;2022-08-11T12:08:55;2.70;;;1.30;;
47912;SDS011;33676;51.006;17.180;2022-08-11T12:11:27;0.70;;;0.70;;
47912;SDS011;33676;51.006;17.180;2022-08-11T12:14:17;0.80;;;0.80;;
47912;SDS011;33676;51.006;17.180;2022-08-11T12:16:48;1.20;;;0.80;;
47912;SDS011;33676;51.006;17.180;2022-08-11T12:19:18;4.40;;;1.40;;
47912;SDS011;33676;51.006;17.180;2022-08-11T12:21:56;2.10;;;1.20;;
47912;SDS011;33676;51.006;17.180;2022-08-11T12:24:43;17.50;;;2.30;;
47912;SDS011;33676;51.006;17.180;2022-08-11T12:27:32;1.20;;;1.20;;
47912;SDS011;33676;51.006;17.180;2022-08-11T12:30:06;1.70;;;1.50;;
47912;SDS011;33676;51.006;17.180;2022-08-11T12:32:38;1.10;;;1.10;;
47912;SDS011;33676;51.006;17.180;2022-08-11T12:35:10;2.10;;;1.40;;
47912;SDS011;33676;51.006;17.180;2022-08-11T12:37:51;1.20;;;1.10;;
47912;SDS011;33676;51.006;17.180;2022-08-11T12:40:39;6.60;;;1.60;;
47912;SDS011;33676;51.006;17.180;2022-08-11T12:43:44;2.20;;;1.90;;
47912;SDS011;33676;51.006;17.180;2022-08-11T12:46:35;1.20;;;1.20;;
47912;SDS011;33676;51.006;17.180;2022-08-11T12:49:11;3.10;;;1.80;;
47912;SDS011;33676;51.006;17.180;2022-08-11T12:52:05;2.70;;;1.10;;
47912;SDS011;33676;51.006;17.180;2022-08-11T13:00:24;1.20;;;1.20;;
47912;SDS011;33676;51.006;17.180;2022-08-11T13:03:19;1.70;;;1.10;;
47912;SDS011;33676;51.006;17.180;2022-08-11T13:06:07;1.90;;;1.20;;
47912;SDS011;33676;51.006;17.180;2022-08-11T13:08:37;1.10;;;1.10;;
47912;SDS011;33676;51.006;17.180;2022-08-11T13:11:08;1.20;;;1.20;;
47912;SDS011;33676;51.006;17.180;2022-08-11T13:14:17;0.90;;;0.90;;
47912;SDS011;33676;51.006;17.180;2022-08-11T13:16:47;1.30;;;1.30;;
47912;SDS011;33676;51.006;17.180;2022-08-11T13:19:36;1.30;;;0.90;;
47912;SDS011;33676;51.006;17.180;2022-08-11T13:22:05;0.90;;;0.90;;
47912;SDS011;33676;51.006;17.180;2022-08-11T13:24:34;2.90;;;1.30;;
47912;SDS011;33676;51.006;17.180;2022-08-11T13:27:04;4.80;;;1.50;;
47912;SDS011;33676;51.006;17.180;2022-08-11T13:29:34;1.20;;;1.20;;
47912;SDS011;33676;51.006;17.180;2022-08-11T13:32:04;3.80;;;1.40;;
47912;SDS011;33676;51.006;17.180;2022-08-11T13:34:33;1.30;;;1.00;;
47912;SDS011;33676;51.006;17.180;2022-08-11T13:37:09;1.20;;;1.10;;
47912;SDS011;33676;51.006;17.180;2022-08-11T13:39:42;3.90;;;1.60;;
47912;SDS011;33676;51.006;17.180;2022-08-11T13:42:15;1.30;;;1.20;;
47912;SDS011;33676;51.006;17.180;2022-08-11T13:44:47;1.70;;;1.20;;
47912;SDS011;33676;51.006;17.180;2022-08-11T13:47:16;1.30;;;1.10;;
47912;SDS011;33676;51.006;17.180;2022-08-11T13:49:50;1.80;;;1.50;;
47912;SDS011;33676;51.006;17.180;2022-08-11T13:52:20;5.00;;;1.40;;
47912;SDS011;33676;51.006;17.180;2022-08-11T13:54:49;3.70;;;1.90;;
47912;SDS011;33676;51.006;17.180;2022-08-11T13:57:20;1.60;;;1.40;;
47912;SDS011;33676;51.006;17.180;2022-08-11T14:00:10;1.30;;;1.20;;
47912;SDS011;33676;51.006;17.180;2022-08-11T14:02:52;3.30;;;1.30;;
47912;SDS011;33676;51.006;17.180;2022-08-11T14:05:27;4.80;;;1.50;;
47912;SDS011;33676;51.006;17.180;2022-08-11T14:08:01;1.40;;;1.20;;
47912;SDS011;33676;51.006;17.180;2022-08-11T14:10:32;2.40;;;1.10;;
47912;SDS011;33676;51.006;17.180;2022-08-11T14:13:12;2.40;;;1.40;;
47912;SDS011;33676;51.006;17.180;2022-08-11T14:18:56;3.20;;;1.40;;
47912;SDS011;33676;51.006;17.180;2022-08-11T14:21:34;1.10;;;1.10;;
47912;SDS011;33676;51.006;17.180;2022-08-11T14:24:41;1.50;;;1.20;;
47912;SDS011;33676;51.006;17.180;2022-08-11T14:27:17;4.30;;;1.50;;
47912;SDS011;33676;51.006;17.180;2022-08-11T14:30:13;3.40;;;1.50;;
47912;SDS011;33676;51.006;17.180;2022-08-11T14:33:02;1.10;;;1.10;;
47912;SDS011;33676;51.006;17.180;2022-08-11T14:35:44;2.70;;;1.60;;
47912;SDS011;33676;51.006;17.180;2022-08-11T14:38:17;1.10;;;1.00;;
47912;SDS011;33676;51.006;17.180;2022-08-11T14:40:47;4.10;;;1.80;;
47912;SDS011;33676;51.006;17.180;2022-08-11T14:43:35;1.30;;;1.10;;
47912;SDS011;33676;51.006;17.180;2022-08-11T14:47:01;1.00;;;1.00;;
47912;SDS011;33676;51.006;17.180;2022-08-11T14:50:32;2.20;;;1.50;;
47912;SDS011;33676;51.006;17.180;2022-08-11T14:53:29;1.40;;;1.20;;
47912;SDS011;33676;51.006;17.180;2022-08-11T14:56:25;1.00;;;1.00;;
47912;SDS011;33676;51.006;17.180;2022-08-11T14:59:04;3.70;;;1.70;;
47912;SDS011;33676;51.006;17.180;2022-08-11T15:01:34;1.90;;;1.60;;
47912;SDS011;33676;51.006;17.180;2022-08-11T15:04:26;1.20;;;1.20;;
47912;SDS011;33676;51.006;17.180;2022-08-11T15:07:04;1.20;;;1.20;;
47912;SDS011;33676;51.006;17.180;2022-08-11T15:09:44;2.20;;;1.20;;
47912;SDS011;33676;51.006;17.180;2022-08-11T15:12:35;1.20;;;1.20;;
47912;SDS011;33676;51.006;17.180;2022-08-11T15:15:05;1.60;;;1.60;;
47912;SDS011;33676;51.006;17.180;2022-08-11T15:17:57;1.70;;;1.20;;
47912;SDS011;33676;51.006;17.180;2022-08-11T15:20:28;5.10;;;1.90;;
47912;SDS011;33676;51.006;17.180;2022-08-11T15:23:20;1.20;;;1.20;;
47912;SDS011;33676;51.006;17.180;2022-08-11T15:28:47;2.70;;;1.60;;
47912;SDS011;33676;51.006;17.180;2022-08-11T15:31:36;1.20;;;1.20;;
47912;SDS011;33676;51.006;17.180;2022-08-11T15:34:18;1.70;;;1.30;;
47912;SDS011;33676;51.006;17.180;2022-08-11T15:37:11;4.60;;;1.50;;
47912;SDS011;33676;51.006;17.180;2022-08-11T15:43:24;2.00;;;1.90;;
47912;SDS011;33676;51.006;17.180;2022-08-11T15:46:22;1.90;;;1.80;;
47912;SDS011;33676;51.006;17.180;2022-08-11T15:49:22;1.60;;;1.60;;
47912;SDS011;33676;51.006;17.180;2022-08-11T15:52:24;6.80;;;2.00;;
47912;SDS011;33676;51.006;17.180;2022-08-11T15:54:59;2.10;;;1.70;;
47912;SDS011;33676;51.006;17.180;2022-08-11T15:57:36;3.90;;;1.50;;
47912;SDS011;33676;51.006;17.180;2022-08-11T16:00:24;1.60;;;1.50;;
47912;SDS011;33676;51.006;17.180;2022-08-11T16:03:13;5.40;;;2.10;;
47912;SDS011;33676;51.006;17.180;2022-08-11T16:06:23;1.80;;;1.60;;
47912;SDS011;33676;51.006;17.180;2022-08-11T16:08:54;1.60;;;1.60;;
47912;SDS011;33676;51.006;17.180;2022-08-11T16:11:26;2.00;;;1.90;;
47912;SDS011;33676;51.006;17.180;2022-08-11T16:13:56;1.50;;;1.40;;
47912;SDS011;33676;51.006;17.180;2022-08-11T16:16:44;2.10;;;1.70;;
47912;SDS011;33676;51.006;17.180;2022-08-11T16:19:15;1.90;;;1.70;;
47912;SDS011;33676;51.006;17.180;2022-08-11T16:21:48;2.80;;;2.00;;
47912;SDS011;33676;51.006;17.180;2022-08-11T16:24:19;2.10;;;1.70;;
47912;SDS011;33676;51.006;17.180;2022-08-11T16:27:11;1.80;;;1.80;;
47912;SDS011;33676;51.006;17.180;2022-08-11T16:29:45;1.80;;;1.70;;
47912;SDS011;33676;51.006;17.180;2022-08-11T16:32:18;3.00;;;1.80;;
47912;SDS011;33676;51.006;17.180;2022-08-11T16:34:59;1.60;;;1.60;;
47912;SDS011;33676;51.006;17.180;2022-08-11T16:37:48;1.90;;;1.90;;
47912;SDS011;33676;51.006;17.180;2022-08-11T16:40:39;1.60;;;1.60;;
47912;SDS011;33676;51.006;17.180;2022-08-11T16:43:12;5.50;;;2.20;;
47912;SDS011;33676;51.006;17.180;2022-08-11T16:46:03;1.90;;;1.80;;
47912;SDS011;33676;51.006;17.180;2022-08-11T16:48:53;2.10;;;2.00;;
47912;SDS011;33676;51.006;17.180;2022-08-11T16:51:24;1.90;;;1.80;;
47912;SDS011;33676;51.006;17.180;2022-08-11T16:53:52;6.00;;;2.30;;
47912;SDS011;33676;51.006;17.180;2022-08-11T16:56:41;4.90;;;1.70;;
47912;SDS011;33676;51.006;17.180;2022-08-11T16:59:25;2.40;;;1.50;;
47912;SDS011;33676;51.006;17.180;2022-08-11T17:02:14;2.40;;;1.50;;
47912;SDS011;33676;51.006;17.180;2022-08-11T17:08:00;3.20;;;1.00;;
47912;SDS011;33676;51.006;17.180;2022-08-11T17:13:57;3.10;;;1.10;;
47912;SDS011;33676;51.006;17.180;2022-08-11T17:16:34;2.40;;;1.40;;
47912;SDS011;33676;51.006;17.180;2022-08-11T17:19:12;2.40;;;1.10;;
47912;SDS011;33676;51.006;17.180;2022-08-11T17:22:05;2.20;;;1.20;;
47912;SDS011;33676;51.006;17.180;2022-08-11T17:24:53;1.20;;;1.20;;
47912;SDS011;33676;51.006;17.180;2022-08-11T17:27:24;1.10;;;1.10;;
47912;SDS011;33676;51.006;17.180;2022-08-11T17:29:59;1.10;;;1.10;;
47912;SDS011;33676;51.006;17.180;2022-08-11T17:32:37;1.20;;;1.10;;
47912;SDS011;33676;51.006;17.180;2022-08-11T17:35:31;0.90;;;0.90;;
47912;SDS011;33676;51.006;17.180;2022-08-11T17:38:07;0.70;;;0.70;;
47912;SDS011;33676;51.006;17.180;2022-08-11T17:40:54;2.10;;;0.90;;
47912;SDS011;33676;51.006;17.180;2022-08-11T17:43:51;4.60;;;1.00;;
47912;SDS011;33676;51.006;17.180;2022-08-11T17:46:40;0.90;;;0.90;;
47912;SDS011;33676;51.006;17.180;2022-08-11T17:49:34;1.60;;;1.30;;
47912;SDS011;33676;51.006;17.180;2022-08-11T17:52:06;1.10;;;0.90;;
47912;SDS011;33676;51.006;17.180;2022-08-11T17:55:02;1.00;;;1.00;;
47912;SDS011;33676;51.006;17.180;2022-08-11T17:58:10;1.30;;;1.00;;
47912;SDS011;33676;51.006;17.180;2022-08-11T18:01:00;1.10;;;1.00;;
47912;SDS011;33676;51.006;17.180;2022-08-11T18:03:38;0.90;;;0.80;;
47912;SDS011;33676;51.006;17.180;2022-08-11T18:06:20;1.60;;;1.00;;
47912;SDS011;33676;51.006;17.180;2022-08-11T18:09:04;4.70;;;1.20;;
47912;SDS011;33676;51.006;17.180;2022-08-11T18:11:55;1.40;;;1.30;;
47912;SDS011;33676;51.006;17.180;2022-08-11T18:14:49;3.40;;;1.20;;
47912;SDS011;33676;51.006;17.180;2022-08-11T18:17:40;3.00;;;1.10;;
47912;SDS011;33676;51.006;17.180;2022-08-11T18:20:27;5.90;;;1.70;;
47912;SDS011;33676;51.006;17.180;2022-08-11T18:23:18;1.20;;;1.00;;
47912;SDS011;33676;51.006;17.180;2022-08-11T18:26:20;1.60;;;1.00;;
47912;SDS011;33676;51.006;17.180;2022-08-11T18:29:11;0.80;;;0.70;;
47912;SDS011;33676;51.006;17.180;2022-08-11T18:32:11;1.00;;;0.70;;
47912;SDS011;33676;51.006;17.180;2022-08-11T18:35:20;1.20;;;1.00;;
47912;SDS011;33676;51.006;17.180;2022-08-11T18:38:11;2.40;;;1.00;;
47912;SDS011;33676;51.006;17.180;2022-08-11T18:41:02;1.10;;;1.00;;
47912;SDS011;33676;51.006;17.180;2022-08-11T18:43:54;1.30;;;0.90;;
47912;SDS011;33676;51.006;17.180;2022-08-11T18:46:46;0.80;;;0.80;;
47912;SDS011;33676;51.006;17.180;2022-08-11T18:49:39;2.00;;;0.80;;
47912;SDS011;33676;51.006;17.180;2022-08-11T18:52:32;2.70;;;1.60;;
47912;SDS011;33676;51.006;17.180;2022-08-11T18:55:21;1.90;;;1.10;;
47912;SDS011;33676;51.006;17.180;2022-08-11T18:58:09;2.40;;;1.10;;
47912;SDS011;33676;51.006;17.180;2022-08-11T19:01:01;0.90;;;0.90;;
47912;SDS011;33676;51.006;17.180;2022-08-11T19:03:52;2.80;;;1.50;;
47912;SDS011;33676;51.006;17.180;2022-08-11T19:06:47;1.10;;;0.80;;
47912;SDS011;33676;51.006;17.180;2022-08-11T19:09:40;1.00;;;0.90;;
47912;SDS011;33676;51.006;17.180;2022-08-11T19:12:31;1.10;;;1.00;;
47912;SDS011;33676;51.006;17.180;2022-08-11T19:15:21;2.80;;;0.90;;
47912;SDS011;33676;51.006;17.180;2022-08-11T19:18:12;1.60;;;0.90;;
47912;SDS011;33676;51.006;17.180;2022-08-11T19:21:06;2.20;;;1.10;;
47912;SDS011;33676;51.006;17.180;2022-08-11T19:23:56;1.50;;;1.40;;
47912;SDS011;33676;51.006;17.180;2022-08-11T19:26:49;1.30;;;1.30;;
47912;SDS011;33676;51.006;17.180;2022-08-11T19:29:39;0.70;;;0.70;;
47912;SDS011;33676;51.006;17.180;2022-08-11T19:32:41;2.20;;;0.90;;
47912;SDS011;33676;51.006;17.180;2022-08-11T19:35:29;1.50;;;1.20;;
47912;SDS011;33676;51.006;17.180;2022-08-11T19:38:17;1.40;;;1.00;;
47912;SDS011;33676;51.006;17.180;2022-08-11T19:41:06;1.30;;;0.80;;
47912;SDS011;33676;51.006;17.180;2022-08-11T19:44:15;1.60;;;1.00;;
47912;SDS011;33676;51.006;17.180;2022-08-11T19:47:03;2.40;;;0.80;;
47912;SDS011;33676;51.006;17.180;2022-08-11T19:49:51;2.10;;;1.30;;
47912;SDS011;33676;51.006;17.180;2022-08-11T19:52:40;1.40;;;1.30;;
47912;SDS011;33676;51.006;17.180;2022-08-11T19:55:27;1.40;;;1.30;;
47912;SDS011;33676;51.006;17.180;2022-08-11T19:58:17;2.80;;;1.20;;
47912;SDS011;33676;51.006;17.180;2022-08-11T20:01:05;1.40;;;1.30;;
47912;SDS011;33676;51.006;17.180;2022-08-11T20:03:52;1.60;;;1.50;;
47912;SDS011;33676;51.006;17.180;2022-08-11T20:06:40;1.60;;;1.10;;
47912;SDS011;33676;51.006;17.180;2022-08-11T20:09:28;1.00;;;1.00;;
47912;SDS011;33676;51.006;17.180;2022-08-11T20:12:34;1.50;;;0.90;;